Overview Statistics Trail Chart Weather Telemetry Raw packets
 

This is the latest recevied weather packets stored in our database for station/object DL2AKT-20. If no packets are shown the sender has not sent any weather packets the latest 10 day(s).

<< 1 2 3 4 5 >>
Time Temp. Humidity Pressure Rain* Wind** Luminosity Snow
1778024068 17.22° C 58% 1009.3 hPa - - - -
1778023168 17.22° C 59% 1009.3 hPa - - - -
1778022268 16.67° C 59% 1009.2 hPa - - - -
1778021368 16.67° C 60% 1009.4 hPa - - - -
1778020468 17.78° C 57% 1009.5 hPa - - - -
1778019567 18.33° C 56% 1009.4 hPa - - - -
1778018667 18.89° C 55% 1009.4 hPa - - - -
1778017767 18.33° C 56% 1009.4 hPa - - - -
1778016867 18.33° C 57% 1009.5 hPa - - - -
1778015967 18.33° C 56% 1009.6 hPa - - - -
1778015066 18.33° C 57% 1009.6 hPa - - - -
1778014166 18.33° C 58% 1009.6 hPa - - - -
1778013266 18.33° C 56% 1009.7 hPa - - - -
1778012366 18.89° C 54% 1009.8 hPa - - - -
1778011466 19.44° C 52% 1009.8 hPa - - - -
1778010566 19.44° C 50% 1009.9 hPa - - - -
1778009666 19.44° C 51% 1010 hPa - - - -
1778008766 19.44° C 51% 1009.7 hPa - - - -
1778007866 20° C 50% 1009.7 hPa - - - -
1778006967 20° C 50% 1009.6 hPa - - - -
1778006067 20° C 50% 1009.6 hPa - - - -
1778005167 20° C 52% 1009.6 hPa - - - -
1778004267 19.44° C 52% 1009.5 hPa - - - -
1778003367 19.44° C 53% 1009.6 hPa - - - -
1778002467 20.56° C 50% 1009.7 hPa - - - -

* Rain since midnight (hover to see other rain measurements)
** Current wind speed in m/s (hover to see current wind gust speed)